Time;durP1;ratioP1;P1;durP2;ratioP2;P2;SDS_P1;SDS_P2;PMS_P1;PMS_P2;Temp;Humidity;BMP_temperature;BMP_pressure;BME280_temperature;BME280_humidity;BME280_pressure;Samples;Min_cycle;Max_cycle;Signal;HPM_P1;HPM_P2
2022/05/13 00:00:50;;;;;;;3.77;2.27;;;13.40;1.00;;;13.23;59.02;101105.31;5079402;28;20878;-63
2022/05/13 00:03:19;;;;;;;4.30;2.93;;;13.40;1.00;;;13.02;59.51;101099.06;5094995;28;20381;-64
2022/05/13 00:05:49;;;;;;;2.90;2.50;;;13.20;1.00;;;12.97;59.98;101106.22;5080333;28;20866;-64
2022/05/13 00:08:18;;;;;;;2.50;2.30;;;13.20;1.00;;;13.02;59.68;101111.84;5073886;28;20537;-64
2022/05/13 00:10:47;;;;;;;4.53;2.37;;;13.10;1.00;;;13.03;59.85;101103.47;5073833;28;20899;-64
2022/05/13 00:13:16;;;;;;;2.83;2.30;;;13.20;1.00;;;13.02;60.12;101111.84;5083931;28;20641;-63
2022/05/13 00:15:46;;;;;;;4.83;2.93;;;13.10;1.00;;;12.90;60.54;101108.09;5073710;28;20914;-64
2022/05/13 00:18:15;;;;;;;4.80;2.50;;;13.10;1.00;;;12.84;60.58;101100.78;5080254;28;20404;-63
2022/05/13 00:20:45;;;;;;;4.23;2.60;;;13.00;1.00;;;12.86;60.99;101109.56;5074101;28;20423;-63
2022/05/13 00:23:14;;;;;;;3.77;2.90;;;13.00;1.00;;;12.79;60.70;101103.31;5074098;28;20431;-63
2022/05/13 00:25:43;;;;;;;3.27;2.67;;;12.90;1.00;;;12.67;61.32;101107.72;5074168;28;20462;-63
2022/05/13 00:28:13;;;;;;;3.57;3.07;;;12.90;1.00;;;12.65;61.73;101105.22;5074320;28;20934;-64
2022/05/13 00:30:48;;;;;;;2.90;2.40;;;12.80;1.00;;;12.55;61.98;101102.09;5074108;28;20430;-64
2022/05/13 00:33:19;;;;;;;3.30;3.00;;;12.70;1.00;;;12.61;61.65;101104.81;5086304;28;20461;-65
2022/05/13 00:35:48;;;;;;;3.67;3.37;;;12.80;1.00;;;12.68;61.21;101114.81;5080581;28;20796;-64
2022/05/13 00:38:34;;;;;;;4.20;3.40;;;12.80;1.00;;;12.73;61.32;101106.88;5075359;28;20433;-64
2022/05/13 00:41:03;;;;;;;6.23;3.20;;;12.80;1.00;;;12.72;61.37;101105.22;5074273;28;20835;-63
2022/05/13 00:43:55;;;;;;;3.33;3.03;;;12.80;18.60;;;12.69;61.50;101102.91;5084686;28;20422;-63
2022/05/13 00:46:28;;;;;;;3.30;3.00;;;12.80;3.30;;;12.57;62.21;101108.16;5049460;28;20565;-64
2022/05/13 00:49:02;;;;;;;4.00;3.60;;;12.70;1.00;;;12.50;62.36;101115.44;5051983;28;20470;-64
2022/05/13 00:51:36;;;;;;;4.17;3.67;;;12.70;23.70;;;12.56;62.29;101103.75;5070033;28;20433;-63
2022/05/13 00:54:07;;;;;;;3.30;3.00;;;12.70;21.00;;;12.47;62.59;101102.31;5085242;28;20933;-63
2022/05/13 00:56:37;;;;;;;5.33;3.93;;;12.60;28.80;;;12.34;63.02;101097.72;5095026;28;20547;-62
2022/05/13 00:59:09;;;;;;;2.73;2.47;;;12.50;7.40;;;12.17;63.27;101096.44;5088521;28;20464;-63
2022/05/13 01:01:39;;;;;;;4.10;3.73;;;12.40;8.00;;;12.10;64.00;101095.63;5082670;28;20438;-63
2022/05/13 01:04:13;;;;;;;3.70;3.40;;;12.30;21.70;;;12.07;63.78;101093.31;5073347;28;20426;-63
2022/05/13 01:06:49;;;;;;;4.03;3.40;;;12.30;26.10;;;12.14;64.04;101096.88;5074682;28;20443;-63
2022/05/13 01:09:19;;;;;;;3.40;3.10;;;12.30;43.20;;;12.17;63.67;101101.88;5058475;28;20453;-64
2022/05/13 01:11:52;;;;;;;4.97;3.43;;;12.30;1.00;;;12.03;64.28;101100.19;5062048;28;20426;-64
2022/05/13 01:14:30;;;;;;;6.53;4.00;;;12.20;1.00;;;11.90;64.62;101095.59;5072826;28;20765;-64
2022/05/13 01:20:34;;;;;;;3.70;3.30;;;12.10;1.00;;;11.82;65.14;101094.94;5075401;28;20460;-64
2022/05/13 01:23:09;;;;;;;5.60;3.97;;;12.00;1.00;;;11.66;65.52;101094.25;5072995;28;20800;-63
2022/05/13 01:25:44;;;;;;;3.73;3.40;;;11.90;1.00;;;11.55;65.98;101102.97;5065978;28;20441;-63
2022/05/13 01:28:16;;;;;;;8.07;3.60;;;11.80;1.00;;;11.47;66.45;101100.47;5079207;28;20483;-63
2022/05/13 01:30:50;;;;;;;4.10;3.80;;;11.70;1.00;;;11.48;66.27;101099.41;5077402;28;20449;-64
2022/05/13 01:33:20;;;;;;;3.43;3.13;;;11.70;1.00;;;11.42;66.99;101105.66;5053659;28;20530;-63
2022/05/13 01:35:53;;;;;;;4.50;3.77;;;11.70;1.00;;;11.45;67.14;101101.69;5061997;28;20434;-63
2022/05/13 01:38:27;;;;;;;3.90;3.60;;;11.60;1.00;;;11.34;67.53;101105.81;5092885;28;20445;-62
2022/05/13 01:40:55;;;;;;;5.53;4.77;;;11.60;1.00;;;11.37;66.81;101100.00;5092510;28;20787;-63
2022/05/13 01:43:26;;;;;;;4.43;4.03;;;11.50;1.00;;;11.45;66.20;101107.09;5072933;28;20403;-63
2022/05/13 01:45:55;;;;;;;5.77;4.50;;;11.60;1.00;;;11.54;66.36;101106.72;5081452;28;20488;-63
2022/05/13 01:48:26;;;;;;;4.33;3.73;;;11.60;1.00;;;11.53;65.88;101102.31;5082167;28;20553;-65
2022/05/13 01:50:55;;;;;;;4.93;4.50;;;11.60;1.00;;;11.54;66.10;101106.72;5077095;28;20405;-64
2022/05/13 01:53:25;;;;;;;5.83;3.67;;;11.60;1.00;;;11.45;66.20;101105.22;5072784;28;20422;-64
2022/05/13 01:55:54;;;;;;;5.10;4.70;;;11.60;42.40;;;11.51;66.29;101095.47;5073481;28;20404;-64
2022/05/13 01:58:26;;;;;;;4.30;3.73;;;11.60;1.00;;;11.37;66.69;101089.16;5072591;28;20461;-64
2022/05/13 02:00:59;;;;;;;4.17;3.43;;;11.50;1.00;;;11.22;67.29;101089.31;5073037;28;20930;-63
2022/05/13 02:03:46;;;;;;;4.50;4.10;;;11.40;1.00;;;11.13;67.78;101085.09;5070001;28;20401;-63
2022/05/13 02:06:22;;;;;;;4.30;4.00;;;11.30;15.20;;;10.96;68.34;101088.31;5062052;28;20462;-63
2022/05/13 02:08:56;;;;;;;6.87;4.17;;;11.20;47.60;;;10.87;68.52;101088.50;5074361;28;20489;-63
2022/05/13 02:11:28;;;;;;;9.50;4.33;;;11.10;85.40;;;10.74;68.58;101088.41;5053880;28;20443;-64
2022/05/13 02:13:58;;;;;;;4.30;3.80;;;11.00;90.80;;;10.74;69.23;101093.84;5081034;28;20512;-65
2022/05/13 02:16:26;;;;;;;5.03;4.57;;;11.00;99.90;;;10.65;69.28;101084.16;5073009;28;20517;-64
2022/05/13 02:18:55;;;;;;;5.07;4.57;;;10.90;77.70;;;10.73;69.44;101083.19;5072238;28;20861;-63
2022/05/13 02:21:25;;;;;;;5.40;4.60;;;10.90;99.90;;;10.73;69.55;101078.63;5073922;28;20437;-63
2022/05/13 02:23:55;;;;;;;5.07;4.57;;;10.90;99.90;;;10.61;70.09;101080.19;5076080;28;20977;-63
2022/05/13 02:26:24;;;;;;;5.10;4.30;;;10.90;97.10;;;10.67;69.67;101081.28;5076008;28;20476;-63
2022/05/13 02:28:53;;;;;;;5.27;4.00;;;10.90;99.90;;;10.70;69.41;101070.88;5072913;28;20484;-63
2022/05/13 02:31:22;;;;;;;5.30;4.37;;;10.90;99.90;;;10.64;69.21;101070.84;5078667;28;20522;-63
2022/05/13 02:33:51;;;;;;;6.10;5.47;;;10.90;99.90;;;10.52;69.80;101072.41;5088322;28;20434;-64
2022/05/13 02:36:20;;;;;;;5.90;5.37;;;10.80;99.90;;;10.51;70.05;101065.34;5078859;28;20456;-63
2022/05/13 02:38:49;;;;;;;5.30;4.10;;;10.70;99.90;;;10.44;70.33;101070.72;5077181;28;20954;-63
2022/05/13 02:41:20;;;;;;;5.90;4.97;;;10.70;92.20;;;10.57;69.96;101064.56;5075693;28;20405;-63
2022/05/13 02:43:53;;;;;;;4.33;4.03;;;10.80;99.90;;;10.51;70.13;101065.34;5075583;28;20448;-63
2022/05/13 02:46:25;;;;;;;5.63;4.93;;;10.70;99.90;;;10.46;70.54;101068.63;5070415;28;20770;-64
2022/05/13 02:48:55;;;;;;;6.72;5.28;;;10.70;92.40;;;10.39;70.81;101065.06;5083583;28;20534;-62
2022/05/13 02:51:26;;;;;;;5.97;5.47;;;10.60;87.80;;;10.48;70.68;101069.28;5075927;28;20195;-63
2022/05/13 02:53:56;;;;;;;4.77;4.37;;;10.70;99.90;;;10.37;70.65;101069.81;5076122;28;20522;-64
2022/05/13 02:56:26;;;;;;;4.80;4.40;;;10.60;99.90;;;10.30;71.33;101069.78;5080861;28;20422;-64
2022/05/13 02:58:55;;;;;;;7.05;4.93;;;10.60;99.90;;;10.26;71.37;101065.78;5075802;28;20839;-63
2022/05/13 03:01:24;;;;;;;8.60;5.50;;;10.50;99.90;;;10.21;71.82;101068.25;5077808;28;20283;-64
2022/05/13 03:03:53;;;;;;;6.53;5.47;;;10.40;99.90;;;10.20;72.34;101065.75;5078052;28;20423;-64
2022/05/13 03:06:22;;;;;;;6.97;5.50;;;10.40;99.90;;;10.24;72.40;101058.91;5076484;28;20427;-63
2022/05/13 03:08:52;;;;;;;4.82;4.43;;;10.50;99.90;;;10.18;72.29;101065.94;5076432;28;20480;-63
2022/05/13 03:11:22;;;;;;;6.00;5.55;;;10.40;1.00;;;10.23;72.00;101062.63;5077077;28;20188;-63
2022/05/13 03:13:53;;;;;;;9.25;5.35;;;10.40;23.60;;;10.25;71.89;101066.00;5076964;28;20172;-64
2022/05/13 03:16:25;;;;;;;7.70;5.60;;;10.40;1.00;;;10.30;71.84;101064.38;5076526;28;20183;-63
2022/05/13 03:18:56;;;;;;;12.57;6.00;;;10.40;1.00;;;10.41;71.59;101054.84;5076143;28;20696;-63
2022/05/13 03:21:26;;;;;;;5.30;4.43;;;10.60;25.90;;;10.55;71.06;101061.22;5075170;28;20434;-63
2022/05/13 03:23:55;;;;;;;8.10;7.30;;;10.60;56.80;;;10.68;70.51;101053.19;5074944;28;20435;-64
2022/05/13 03:26:24;;;;;;;5.82;5.40;;;10.70;99.90;;;10.79;69.95;101069.72;5081674;28;20422;-63
2022/05/13 03:28:54;;;;;;;6.43;5.83;;;10.90;99.90;;;10.64;70.43;101055.47;5074930;28;20287;-63
2022/05/13 03:31:23;;;;;;;6.70;6.00;;;10.80;99.90;;;10.83;70.13;101062.03;5088538;28;20472;-63
2022/05/13 03:33:52;;;;;;;6.87;5.67;;;10.80;99.90;;;10.89;70.39;101064.75;5075089;28;20415;-63
2022/05/13 03:36:20;;;;;;;6.87;6.17;;;10.90;99.90;;;11.17;69.43;101056.56;5070919;28;20453;-63
2022/05/13 03:38:49;;;;;;;6.17;5.63;;;11.00;99.90;;;11.33;68.57;101060.78;5054905;28;20978;-63
2022/05/13 03:41:18;;;;;;;8.50;6.93;;;11.10;99.90;;;11.47;68.45;101062.53;5036896;28;20435;-63
2022/05/13 03:43:47;;;;;;;7.00;6.30;;;11.20;99.90;;;12.07;66.95;101060.75;5070293;28;20457;-63
2022/05/13 03:46:17;;;;;;;7.63;6.97;;;11.50;99.90;;;12.81;64.52;101060.47;5071990;28;20407;-63
2022/05/13 03:48:46;;;;;;;7.50;6.90;;;12.00;99.90;;;13.52;62.20;101065.88;5054225;28;20506;-63
2022/05/13 03:51:15;;;;;;;7.53;6.53;;;12.50;99.80;;;14.19;60.23;101060.59;5083267;28;20435;-63
2022/05/13 03:53:44;;;;;;;8.97;5.93;;;13.00;95.30;;;14.66;58.72;101058.34;5074213;28;20495;-64
2022/05/13 03:56:13;;;;;;;6.70;6.20;;;13.40;88.70;;;15.06;57.40;101051.38;5080562;28;20436;-64
2022/05/13 03:58:42;;;;;;;9.00;7.03;;;13.70;78.50;;;15.56;56.38;101048.47;5080911;28;20545;-63
2022/05/13 04:01:11;;;;;;;6.07;5.40;;;14.10;71.50;;;16.06;54.46;101046.25;5064760;28;20889;-64
2022/05/13 04:03:41;;;;;;;7.13;6.47;;;14.50;57.60;;;16.43;53.81;101057.81;5067021;28;20429;-64
2022/05/13 04:08:57;;;;;;;6.73;5.50;;;14.90;48.50;;;16.82;52.90;101061.75;5053016;28;21034;-64
2022/05/13 04:11:28;;;;;;;6.07;5.10;;;14.90;47.90;;;17.17;52.23;101064.44;5065790;28;20535;-64
2022/05/13 04:16:44;;;;;;;6.53;5.50;;;15.30;42.40;;;18.21;49.59;101052.22;5058171;28;20914;-65
2022/05/13 04:19:15;;;;;;;7.47;5.13;;;15.60;40.80;;;18.34;48.82;101054.63;5087046;28;20465;-65
2022/05/13 04:21:46;;;;;;;7.73;5.30;;;16.10;34.50;;;18.25;48.84;101058.84;5081382;28;20430;-63
2022/05/13 04:24:17;;;;;;;5.60;5.17;;;16.30;30.70;;;18.32;49.02;101051.31;5073699;28;20830;-64
2022/05/13 04:26:48;;;;;;;6.03;5.50;;;16.20;29.50;;;18.46;49.03;101052.63;5057669;28;20433;-64
2022/05/13 04:29:17;;;;;;;8.43;5.67;;;16.40;29.40;;;18.43;49.26;101053.13;5088251;28;20480;-64
2022/05/13 04:31:46;;;;;;;8.07;5.80;;;16.30;28.90;;;18.62;48.64;101051.81;5081428;28;20435;-64
2022/05/13 04:34:16;;;;;;;6.33;5.83;;;16.40;28.60;;;18.73;48.61;101051.97;5080455;28;20450;-64
2022/05/13 04:36:46;;;;;;;7.40;5.20;;;16.60;27.80;;;18.81;48.58;101057.00;5055701;28;20454;-64
2022/05/13 04:39:15;;;;;;;5.63;5.10;;;16.80;26.70;;;19.19;47.13;101043.25;5074531;28;20432;-63
2022/05/13 04:44:33;;;;;;;6.37;5.73;;;16.90;24.30;;;19.96;45.88;101043.03;5081347;28;20910;-63
2022/05/13 04:47:02;;;;;;;6.50;5.20;;;17.30;22.60;;;19.92;45.51;101042.72;5073851;28;20834;-64
2022/05/13 04:49:32;;;;;;;6.60;6.00;;;17.50;21.30;;;20.06;45.33;101037.63;5088616;28;20501;-64
2022/05/13 04:52:01;;;;;;;5.63;5.13;;;17.70;20.10;;;20.17;45.19;101041.31;5075451;28;20434;-65
2022/05/13 04:54:30;;;;;;;5.40;4.97;;;17.90;19.20;;;20.28;44.55;101037.56;5080235;28;20512;-64
2022/05/13 04:56:59;;;;;;;6.53;5.40;;;17.80;17.80;;;20.45;44.11;101048.41;5057078;28;20479;-64
2022/05/13 04:59:28;;;;;;;5.60;5.10;;;18.10;17.00;;;20.81;43.45;101048.41;5073347;28;20972;-65
2022/05/13 05:01:56;;;;;;;4.93;4.37;;;18.00;16.60;;;20.91;42.41;101047.63;5070348;28;20526;-64
2022/05/13 05:04:25;;;;;;;5.80;5.30;;;18.20;15.50;;;20.86;43.37;101055.84;5076850;28;20468;-64
2022/05/13 05:06:56;;;;;;;6.50;4.13;;;18.60;15.30;;;21.16;42.99;101050.50;5083348;28;20970;-64
2022/05/13 05:09:25;;;;;;;6.40;5.40;;;18.70;14.80;;;21.48;41.55;101052.31;5086018;28;20500;-64
2022/05/13 05:11:54;;;;;;;6.97;5.57;;;18.60;13.10;;;21.21;42.04;101050.53;5063769;28;20422;-64
2022/05/13 05:14:22;;;;;;;5.67;5.17;;;18.90;12.90;;;21.65;41.05;101058.41;5079748;28;20425;-65
2022/05/13 05:16:51;;;;;;;6.90;4.73;;;18.80;10.30;;;21.52;41.74;101053.41;5075878;28;20418;-64
2022/05/13 05:19:20;;;;;;;4.80;4.30;;;19.10;10.20;;;21.98;41.02;101051.59;5058232;28;20428;-64
2022/05/13 05:21:49;;;;;;;4.77;4.37;;;19.20;9.60;;;21.92;40.67;101047.19;5061893;28;20500;-64
2022/05/13 05:24:19;;;;;;;7.53;6.00;;;19.70;9.20;;;20.35;43.33;101046.41;5073009;28;20460;-64
2022/05/13 05:26:48;;;;;;;8.40;4.60;;;19.30;9.20;;;19.09;45.98;101040.38;5072991;28;20393;-65
2022/05/13 05:29:17;;;;;;;7.50;5.37;;;18.60;10.80;;;18.20;47.71;101045.88;5079507;28;20474;-64
2022/05/13 05:31:46;;;;;;;6.60;5.83;;;18.00;12.00;;;17.67;48.75;101053.72;5074578;28;20421;-65
2022/05/13 05:34:16;;;;;;;10.90;5.30;;;17.30;14.10;;;17.42;49.61;101045.81;5070115;28;20727;-65
2022/05/13 05:36:46;;;;;;;5.87;5.13;;;16.90;15.80;;;17.15;49.99;101044.69;5072806;28;20792;-65
2022/05/13 05:39:17;;;;;;;6.60;4.70;;;16.80;16.90;;;16.96;50.25;101041.31;5071747;28;20417;-63
2022/05/13 05:41:47;;;;;;;6.37;5.63;;;16.60;17.80;;;16.86;50.32;101041.91;5074008;28;20442;-63
2022/05/13 05:44:16;;;;;;;13.03;5.83;;;16.40;17.10;;;17.11;50.33;101040.78;5050117;28;20428;-64
2022/05/13 05:46:44;;;;;;;11.33;7.10;;;16.60;17.90;;;17.17;50.54;101045.31;5072338;28;20405;-64
2022/05/13 05:49:13;;;;;;;5.80;5.30;;;16.60;18.20;;;17.13;50.06;101041.41;5075492;28;20477;-64
2022/05/13 05:51:42;;;;;;;5.90;5.30;;;16.60;17.70;;;17.42;49.62;101037.63;5075145;28;20413;-64
2022/05/13 05:57:17;;;;;;;6.43;4.53;;;16.90;19.00;;;17.61;49.90;101043.75;5070084;28;20844;-65
2022/05/13 05:59:48;;;;;;;8.63;4.77;;;17.00;18.30;;;17.89;48.46;101034.69;5063686;28;20496;-65
2022/05/13 06:02:17;;;;;;;4.50;4.07;;;17.30;17.60;;;17.99;47.65;101041.16;5073080;28;20434;-64
2022/05/13 06:04:47;;;;;;;6.57;4.70;;;17.40;16.00;;;18.29;46.75;101032.63;5077879;28;20813;-64
2022/05/13 06:07:18;;;;;;;5.40;4.90;;;17.60;14.70;;;18.48;46.67;101034.03;5087416;28;20404;-64
2022/05/13 06:09:51;;;;;;;7.33;4.67;;;17.90;14.50;;;18.57;46.09;101038.03;5075963;28;20827;-65
2022/05/13 06:12:21;;;;;;;7.63;5.03;;;17.80;13.60;;;18.62;45.62;101040.84;5080992;28;20451;-65
2022/05/13 06:14:50;;;;;;;6.33;4.63;;;17.90;12.60;;;18.74;45.63;101042.63;5075588;28;20491;-63
2022/05/13 06:17:19;;;;;;;5.10;4.70;;;18.10;12.50;;;18.78;45.32;101039.16;5078207;28;20410;-64
2022/05/13 06:19:48;;;;;;;9.33;5.30;;;18.20;12.40;;;18.65;45.48;101040.34;5086833;28;20782;-63
2022/05/13 06:22:16;;;;;;;8.97;4.67;;;18.00;13.20;;;18.74;45.99;101042.63;5090864;28;20443;-63
2022/05/13 06:24:45;;;;;;;7.07;5.00;;;18.10;15.50;;;18.46;46.38;101052.63;5094116;28;20412;-64
2022/05/13 06:27:14;;;;;;;5.03;4.53;;;18.20;14.20;;;18.38;46.71;101044.84;5069832;28;20439;-64
2022/05/13 06:29:44;;;;;;;7.50;4.37;;;18.00;14.70;;;18.50;46.63;101048.28;5060888;28;20448;-62
2022/05/13 06:32:13;;;;;;;5.20;4.20;;;18.10;12.50;;;18.61;46.69;101050.16;5080033;28;20494;-63
2022/05/13 06:34:42;;;;;;;5.67;5.03;;;18.20;12.90;;;18.69;47.19;101051.63;5084105;28;20393;-65
2022/05/13 06:37:11;;;;;;;6.60;5.80;;;18.20;14.60;;;18.70;46.97;101046.97;5081124;28;20900;-64
2022/05/13 06:39:40;;;;;;;4.77;4.20;;;18.30;14.40;;;18.88;46.45;101043.97;5085970;28;20430;-65
2022/05/13 06:42:10;;;;;;;5.47;4.60;;;18.40;14.10;;;18.99;45.85;101046.56;5075577;28;20426;-65
2022/05/13 06:44:44;;;;;;;5.13;4.63;;;18.50;14.00;;;19.07;45.36;101037.09;5060864;28;20442;-65
2022/05/13 06:47:13;;;;;;;5.37;4.73;;;18.60;13.80;;;19.19;45.00;101046.00;5077272;28;20547;-65
2022/05/13 06:49:42;;;;;;;15.17;6.70;;;18.70;12.60;;;19.25;44.80;101047.72;5076213;28;20477;-65
2022/05/13 06:52:13;;;;;;;7.43;5.47;;;18.70;12.50;;;19.58;44.27;101043.19;5083456;28;20484;-65
2022/05/13 06:55:02;;;;;;;8.17;4.60;;;18.90;12.10;;;20.03;43.39;101043.66;5082429;28;20440;-64
2022/05/13 06:57:31;;;;;;;6.37;5.77;;;19.20;12.10;;;20.24;42.80;101048.22;5075308;28;20806;-64
2022/05/13 07:00:01;;;;;;;8.00;5.60;;;19.60;10.50;;;19.55;43.94;101038.22;5072181;28;20513;-65
2022/05/13 07:02:30;;;;;;;9.27;6.20;;;19.30;9.20;;;19.21;44.11;101043.00;5074311;28;20427;-65
2022/05/13 07:04:59;;;;;;;7.50;6.03;;;18.90;8.80;;;19.31;44.34;101038.50;5075228;28;20423;-65
2022/05/13 07:07:28;;;;;;;7.30;5.83;;;18.90;10.50;;;19.14;44.75;101037.72;5074816;28;20461;-65
2022/05/13 07:09:57;;;;;;;7.10;5.60;;;18.80;10.20;;;19.26;44.60;101038.44;5077454;28;20832;-65
2022/05/13 07:12:26;;;;;;;5.57;5.07;;;18.90;11.00;;;19.14;44.87;101032.22;5082208;28;20441;-66
2022/05/13 07:14:55;;;;;;;9.33;6.43;;;18.80;10.40;;;19.48;44.86;101028.28;5074499;28;20419;-64
2022/05/13 07:17:25;;;;;;;6.93;5.50;;;18.90;11.40;;;19.95;44.62;101033.13;5074662;28;20411;-65
2022/05/13 07:19:55;;;;;;;7.87;5.80;;;19.10;10.90;;;20.25;43.39;101043.56;5062386;28;20422;-64
2022/05/13 07:22:24;;;;;;;6.80;6.00;;;19.40;10.00;;;20.25;42.69;101038.88;5074614;28;20438;-64
2022/05/13 07:24:53;;;;;;;11.07;8.13;;;19.50;8.90;;;19.72;42.52;101045.28;5044810;28;20797;-64
2022/05/13 07:27:22;;;;;;;6.97;6.27;;;19.30;8.10;;;18.66;44.07;101050.22;5017342;28;20447;-65
2022/05/13 07:29:51;;;;;;;8.37;6.53;;;18.80;7.00;;;18.65;44.81;101045.81;5017346;28;20535;-65
2022/05/13 07:32:20;;;;;;;8.10;6.23;;;18.50;9.10;;;19.04;45.25;101059.53;5011257;28;20483;-65
2022/05/13 07:34:50;;;;;;;9.73;8.80;;;18.60;11.20;;;18.63;45.14;101053.47;5016580;28;20462;-65
2022/05/13 07:37:19;;;;;;;7.73;6.57;;;18.40;11.30;;;18.67;45.40;101054.63;5016944;28;20448;-64
2022/05/13 07:42:34;;;;;;;6.77;6.07;;;18.30;11.70;;;18.62;45.58;101062.78;5017086;28;20912;-65
2022/05/13 07:45:04;;;;;;;7.83;7.00;;;18.20;11.80;;;18.87;45.84;101069.72;5013341;28;20442;-65
2022/05/13 07:47:34;;;;;;;7.80;6.73;;;18.40;11.10;;;18.54;45.60;101073.34;5020521;28;20435;-64
2022/05/13 07:50:06;;;;;;;8.17;7.40;;;18.30;10.40;;;18.42;45.90;101072.56;5019771;28;20477;-64
2022/05/13 07:52:36;;;;;;;10.13;6.50;;;18.20;11.20;;;18.52;46.41;101076.28;5018148;28;20429;-65
2022/05/13 07:55:07;;;;;;;8.60;7.50;;;18.20;12.90;;;18.46;46.53;101080.03;5023021;28;20479;-65
2022/05/13 07:57:39;;;;;;;8.53;6.30;;;18.10;13.10;;;18.46;47.16;101080.03;5019352;28;20460;-65
2022/05/13 08:00:25;;;;;;;7.73;7.00;;;18.10;13.30;;;18.27;47.58;101084.09;5022303;28;20812;-66
2022/05/13 08:02:58;;;;;;;8.50;6.73;;;18.00;13.80;;;18.39;47.22;101076.63;5022405;28;20440;-64
2022/05/13 08:05:32;;;;;;;8.53;7.37;;;18.10;14.80;;;18.11;47.72;101076.69;5016328;28;20848;-64
2022/05/13 08:08:09;;;;;;;7.67;6.87;;;17.90;14.10;;;18.39;47.53;101078.53;5008401;28;20483;-65
2022/05/13 08:10:40;;;;;;;6.80;6.10;;;18.00;14.70;;;18.73;47.59;101068.41;5032371;28;20462;-64
2022/05/13 08:13:09;;;;;;;11.10;7.03;;;18.10;14.70;;;18.58;47.23;101077.25;5027812;28;20535;-64
2022/05/13 08:15:39;;;;;;;8.60;7.57;;;18.10;13.20;;;18.04;46.30;101079.59;5019413;28;20530;-64
2022/05/13 08:18:08;;;;;;;8.90;6.63;;;17.90;10.60;;;17.92;47.38;101070.59;5018511;28;20911;-65
2022/05/13 08:20:45;;;;;;;9.53;7.70;;;17.70;11.60;;;17.86;47.24;101068.03;5016273;28;20432;-64
2022/05/13 08:23:15;;;;;;;7.00;6.20;;;17.60;12.50;;;17.79;47.86;101060.78;5015404;28;20433;-64
2022/05/13 08:25:45;;;;;;;9.20;7.07;;;17.50;13.00;;;17.68;48.38;101072.63;5022334;28;20797;-65
2022/05/13 08:28:15;;;;;;;9.77;6.90;;;17.40;13.30;;;17.37;48.83;101076.66;5004676;28;20452;-65
2022/05/13 08:30:45;;;;;;;7.73;7.03;;;17.30;13.60;;;17.37;49.17;101067.59;5019348;28;20464;-64
2022/05/13 08:33:15;;;;;;;9.10;8.00;;;17.20;14.60;;;17.38;49.35;101085.66;5015720;28;20435;-64
2022/05/13 08:35:48;;;;;;;13.40;9.07;;;17.20;14.90;;;17.28;49.86;101083.53;5004540;28;20433;-64
2022/05/13 08:38:21;;;;;;;8.40;6.50;;;17.00;15.20;;;17.01;49.98;101076.13;4995862;28;20438;-64
2022/05/13 08:41:21;;;;;;;9.50;7.50;;;16.90;15.40;;;16.87;49.75;101081.00;4999285;28;20831;-65
2022/05/13 08:43:56;;;;;;;8.73;7.33;;;16.80;15.20;;;16.76;50.51;101085.41;5017845;28;20448;-65
2022/05/13 08:46:39;;;;;;;8.50;6.13;;;16.60;15.90;;;16.87;50.82;101076.38;5025547;28;20442;-64
2022/05/13 08:49:38;;;;;;;7.83;6.50;;;16.70;16.60;;;16.98;50.74;101082.06;5024102;28;20479;-65
2022/05/13 08:55:16;;;;;;;9.30;7.10;;;16.70;16.50;;;17.14;49.28;101064.91;5014537;28;20410;-64
2022/05/13 08:57:49;;;;;;;7.97;7.23;;;16.80;15.70;;;17.51;48.73;101079.94;5023206;28;20427;-64
2022/05/13 09:00:29;;;;;;;8.50;6.90;;;17.00;16.00;;;17.83;47.76;101083.03;5026463;28;20535;-64
2022/05/13 09:03:08;;;;;;;8.87;7.60;;;17.30;14.90;;;18.00;48.03;101072.13;5029134;28;20427;-65
2022/05/13 09:05:46;;;;;;;8.50;6.37;;;17.50;15.20;;;18.53;46.77;101069.75;5025561;28;20411;-64
2022/05/13 09:08:16;;;;;;;7.70;6.40;;;17.80;14.90;;;19.19;45.64;101080.84;5017773;28;20501;-66
2022/05/13 09:11:02;;;;;;;9.13;7.10;;;18.40;14.00;;;19.70;44.31;101079.56;5022616;28;20526;-65
2022/05/13 09:13:42;;;;;;;9.03;6.00;;;18.80;12.20;;;20.01;43.17;101070.53;5020134;28;20408;-65
2022/05/13 09:16:11;;;;;;;6.07;5.50;;;19.10;11.10;;;19.78;43.09;101066.22;5020534;28;20764;-65
2022/05/13 09:18:51;;;;;;;6.00;5.40;;;19.10;9.30;;;19.48;43.69;101071.34;5028133;28;20460;-65
2022/05/13 09:21:22;;;;;;;5.73;4.40;;;19.10;10.30;;;19.15;43.23;101069.56;4999532;28;20494;-65
2022/05/13 09:23:52;;;;;;;7.10;4.70;;;18.80;9.60;;;19.08;43.82;101063.41;5021834;28;20458;-65
2022/05/13 09:26:24;;;;;;;6.20;4.63;;;18.80;9.30;;;19.16;43.30;101059.41;5001208;28;20415;-65
2022/05/13 09:29:08;;;;;;;4.27;3.73;;;18.80;8.60;;;19.05;43.86;101055.69;5022335;28;20459;-64
2022/05/13 09:31:41;;;;;;;10.50;5.20;;;18.60;9.50;;;19.31;43.52;101052.22;5014541;28;20443;-65
2022/05/13 09:34:35;;;;;;;6.30;4.27;;;18.70;9.40;;;18.79;43.24;101061.91;5019055;28;20404;-65
2022/05/13 09:37:18;;;;;;;7.40;3.87;;;18.50;7.80;;;18.77;43.44;101053.13;5028189;28;20427;-64
2022/05/13 09:39:51;;;;;;;4.60;2.97;;;18.50;8.10;;;19.17;41.87;101045.41;5012732;28;20461;-65
2022/05/13 09:42:26;;;;;;;3.97;2.80;;;18.60;7.40;;;19.70;41.62;101046.63;4994229;28;20416;-65
2022/05/13 09:45:21;;;;;;;9.77;4.70;;;19.00;6.20;;;20.14;41.09;101047.34;5008400;28;20424;-65
2022/05/13 09:48:19;;;;;;;5.90;4.10;;;19.40;5.20;;;19.95;40.62;101046.84;5008916;28;20419;-65
2022/05/13 09:50:54;;;;;;;8.87;4.07;;;19.50;4.00;;;20.31;40.89;101046.13;5008105;28;20456;-64
2022/05/13 09:53:41;;;;;;;6.67;3.77;;;19.70;5.30;;;20.30;40.58;101047.22;4997281;28;20910;-64
2022/05/13 09:56:16;;;;;;;4.70;3.67;;;19.90;4.10;;;20.85;40.19;101040.44;5025394;28;20424;-64
2022/05/13 09:58:53;;;;;;;3.60;3.30;;;20.20;4.40;;;21.02;40.31;101038.31;5032867;28;20426;-64
2022/05/13 10:01:29;;;;;;;5.60;3.87;;;20.40;4.00;;;21.41;39.97;101037.94;5013113;28;20411;-65
2022/05/13 10:04:08;;;;;;;4.07;3.37;;;20.70;5.60;;;21.02;40.22;101040.25;5014619;28;20419;-65
2022/05/13 10:06:41;;;;;;;6.70;3.80;;;20.60;4.30;;;21.43;39.50;101038.53;5025412;28;20453;-64
2022/05/13 10:15:13;;;;;;;6.80;4.47;;;20.70;3.00;;;19.82;42.04;101028.06;5016456;28;20876;-66
2022/05/13 10:17:51;;;;;;;6.90;3.97;;;19.90;4.30;;;20.34;40.89;101026.34;5013542;28;20619;-65
2022/05/13 10:20:33;;;;;;;4.30;3.80;;;20.00;4.50;;;20.48;40.94;101032.22;5030356;28;20458;-65
2022/05/13 10:23:12;;;;;;;4.10;3.70;;;20.10;5.40;;;20.11;41.01;101021.19;5017517;28;20421;-64
2022/05/13 10:25:56;;;;;;;3.70;3.03;;;19.90;4.50;;;19.21;42.09;101016.41;5012728;28;20399;-64
2022/05/13 10:28:36;;;;;;;6.10;3.83;;;19.20;4.30;;;18.98;42.34;101019.38;5002377;28;20515;-64
2022/05/13 10:31:12;;;;;;;6.20;3.03;;;18.90;4.10;;;18.82;43.84;101017.53;5015516;28;20471;-64
2022/05/13 10:33:54;;;;;;;8.33;3.73;;;18.60;6.00;;;18.58;43.55;101026.00;5018716;28;20428;-65
2022/05/13 10:36:31;;;;;;;3.83;3.33;;;18.50;6.70;;;18.39;44.13;101035.53;5019867;28;20441;-65
2022/05/13 10:39:08;;;;;;;5.73;4.90;;;18.30;6.50;;;18.42;44.70;101031.44;5019210;28;20423;-66
2022/05/13 10:41:46;;;;;;;6.13;3.50;;;18.20;5.80;;;18.59;44.38;101024.88;5025308;28;20442;-64
2022/05/13 10:44:33;;;;;;;6.70;3.23;;;18.30;6.20;;;18.86;44.11;101025.00;5019572;28;20433;-64
2022/05/13 10:47:10;;;;;;;4.63;3.10;;;18.40;6.50;;;18.95;43.45;101025.41;5022062;28;20419;-64
2022/05/13 10:49:43;;;;;;;3.17;2.47;;;18.60;5.60;;;19.41;42.89;101022.09;5022562;28;21030;-64
2022/05/13 10:52:35;;;;;;;4.50;3.37;;;18.90;5.10;;;19.15;42.55;101025.66;5023181;28;20526;-64
2022/05/13 10:55:14;;;;;;;3.60;3.17;;;18.90;5.00;;;19.40;43.40;101025.13;5015784;28;20463;-66
2022/05/13 10:58:07;;;;;;;4.83;2.90;;;19.00;5.50;;;20.12;41.44;101025.59;5015455;28;20388;-63
2022/05/13 11:00:53;;;;;;;3.87;2.80;;;19.50;4.40;;;19.84;41.11;101025.91;5022464;28;20436;-64
2022/05/13 11:03:58;;;;;;;2.17;1.97;;;19.60;2.70;;;19.99;40.39;101023.31;5018064;28;20483;-65